Time;durP1;ratioP1;P1;durP2;ratioP2;P2;SDS_P1;SDS_P2;PMS_P1;PMS_P2;Temp;Humidity;BMP_temperature;BMP_pressure;BME280_temperature;BME280_humidity;BME280_pressure;Samples;Min_cycle;Max_cycle;Signal;HPM_P1;HPM_P2
2020/12/09 00:04:23;;;;;;;;;;;;;;;;;;5034139;28;753;-83
2020/12/09 00:16:28;;;;;;;;;;;;;;;;;;5014339;28;737;-82
2020/12/09 00:18:53;;;;;;;;;;;;;;;;;;5012867;28;1191;-83
2020/12/09 00:21:19;;;;;;;;;;;;;;;;;;5024023;28;1373;-83
2020/12/09 00:23:44;;;;;;;;;;;;;;;;;;5034029;28;1423;-83
2020/12/09 00:26:10;;;;;;;;;;;;;;;;;;5033811;28;839;-83
2020/12/09 00:28:35;;;;;;;;;;;;;;;;;;5032437;28;1882;-83
2020/12/09 00:31:00;;;;;;;;;;;;;;;;;;5032377;28;1200;-82
2020/12/09 00:33:25;;;;;;;;;;;;;;;;;;5033757;28;1310;-83
2020/12/09 00:35:51;;;;;;;;;;;;;;;;;;5049259;28;1307;-83
2020/12/09 00:38:16;;;;;;;;;;;;;;;;;;5032553;28;912;-83
2020/12/09 00:40:43;;;;;;;;;;;;;;;;;;5032485;28;1424;-82
2020/12/09 00:43:08;;;;;;;;;;;;;;;;;;5033685;28;1290;-83
2020/12/09 00:45:33;;;;;;;;;;;;;;;;;;5049377;28;1372;-83
2020/12/09 00:47:59;;;;;;;;;;;;;;;;;;5033937;28;1998;-83
2020/12/09 00:52:49;;;;;;;;;;;;;;;;;;5033816;28;1357;-83
2020/12/09 00:55:14;;;;;;;;;;;;;;;;;;5032372;28;901;-83
2020/12/09 00:57:39;;;;;;;;;;;;;;;;;;5033537;28;802;-83
2020/12/09 01:00:06;;;;;;;;;;;;;;;;;;5032917;28;1035;-83
2020/12/09 01:02:31;;;;;;;;;;;;;;;;;;5034586;28;1378;-83
2020/12/09 01:04:56;;;;;;;;;;;;;;;;;;5053177;28;1215;-84
2020/12/09 01:07:22;;;;;;;;;;;;;;;;;;5035927;28;1210;-84
2020/12/09 01:09:47;;;;;;;;;;;;;;;;;;5052378;28;1912;-84
2020/12/09 01:12:13;;;;;;;;;;;;;;;;;;5035764;28;1459;-83
2020/12/09 01:14:39;;;;;;;;;;;;;;;;;;5052360;28;1177;-83
2020/12/09 01:17:04;;;;;;;;;;;;;;;;;;5035891;28;842;-82
2020/12/09 01:19:29;;;;;;;;;;;;;;;;;;5035844;28;1210;-83
2020/12/09 01:21:54;;;;;;;;;;;;;;;;;;5035471;28;1440;-83
2020/12/09 01:24:20;;;;;;;;;;;;;;;;;;5037335;28;959;-83
2020/12/09 01:26:45;;;;;;;;;;;;;;;;;;5036425;28;1184;-83
2020/12/09 01:29:11;;;;;;;;;;;;;;;;;;5037369;28;1894;-83
2020/12/09 01:31:36;;;;;;;;;;;;;;;;;;5037191;28;1565;-83
2020/12/09 01:34:01;;;;;;;;;;;;;;;;;;5037803;28;1243;-82
2020/12/09 01:36:27;;;;;;;;;;;;;;;;;;5037213;28;842;-83
2020/12/09 01:38:52;;;;;;;;;;;;;;;;;;5037483;28;1064;-83
2020/12/09 01:41:18;;;;;;;;;;;;;;;;;;5038042;28;1369;-83
2020/12/09 01:43:47;;;;;;;;;;;;;;;;;;5037316;28;1369;-83
2020/12/09 01:46:16;;;;;;;;;;;;;;;;;;5038307;28;976;-83
2020/12/09 01:48:42;;;;;;;;;;;;;;;;;;5037309;28;1898;-83
2020/12/09 01:51:07;;;;;;;;;;;;;;;;;;5035834;28;1393;-83
2020/12/09 01:53:33;;;;;;;;;;;;;;;;;;5053483;28;1172;-84
2020/12/09 01:55:58;;;;;;;;;;;;;;;;;;5036738;28;1171;-84
2020/12/09 01:58:24;;;;;;;;;;;;;;;;;;5035250;28;1467;-84
2020/12/09 02:00:49;;;;;;;;;;;;;;;;;;5035319;28;1232;-83
2020/12/09 02:03:14;;;;;;;;;;;;;;;;;;5036017;28;1373;-83
2020/12/09 02:05:41;;;;;;;;;;;;;;;;;;5035727;28;1253;-83
2020/12/09 02:08:06;;;;;;;;;;;;;;;;;;5035190;28;1977;-84
2020/12/09 02:10:31;;;;;;;;;;;;;;;;;;5035134;28;1180;-82
2020/12/09 02:12:57;;;;;;;;;;;;;;;;;;5036460;28;1408;-83
2020/12/09 02:15:22;;;;;;;;;;;;;;;;;;5035495;28;1312;-83
2020/12/09 02:17:47;;;;;;;;;;;;;;;;;;5035146;28;838;-84
2020/12/09 02:20:13;;;;;;;;;;;;;;;;;;5036243;28;916;-83
2020/12/09 02:22:38;;;;;;;;;;;;;;;;;;5035350;28;1447;-83
2020/12/09 02:25:04;;;;;;;;;;;;;;;;;;5035051;28;1321;-84
2020/12/09 02:27:29;;;;;;;;;;;;;;;;;;5036528;28;853;-83
2020/12/09 02:29:54;;;;;;;;;;;;;;;;;;5036153;28;1951;-84
2020/12/09 02:32:21;;;;;;;;;;;;;;;;;;5035120;28;1593;-83
2020/12/09 02:34:46;;;;;;;;;;;;;;;;;;5034842;28;1444;-83
2020/12/09 02:37:11;;;;;;;;;;;;;;;;;;5034725;28;1415;-84
2020/12/09 02:39:37;;;;;;;;;;;;;;;;;;5036102;28;834;-83
2020/12/09 02:42:03;;;;;;;;;;;;;;;;;;5034797;28;1436;-83
2020/12/09 02:44:28;;;;;;;;;;;;;;;;;;5034714;28;1262;-83
2020/12/09 02:46:54;;;;;;;;;;;;;;;;;;5035848;28;849;-84
2020/12/09 02:49:20;;;;;;;;;;;;;;;;;;5035685;28;1886;-84
2020/12/09 02:51:45;;;;;;;;;;;;;;;;;;5050979;28;1357;-84
2020/12/09 02:54:10;;;;;;;;;;;;;;;;;;5035780;28;850;-83
2020/12/09 02:56:35;;;;;;;;;;;;;;;;;;5035651;28;925;-84
2020/12/09 02:59:01;;;;;;;;;;;;;;;;;;5034271;28;898;-84
2020/12/09 03:01:26;;;;;;;;;;;;;;;;;;5034133;28;1369;-84
2020/12/09 03:03:51;;;;;;;;;;;;;;;;;;5050862;28;1224;-83
2020/12/09 03:06:16;;;;;;;;;;;;;;;;;;5034555;28;1381;-84
2020/12/09 03:08:42;;;;;;;;;;;;;;;;;;5035281;28;1965;-83
2020/12/09 03:11:07;;;;;;;;;;;;;;;;;;5036329;28;1326;-83
2020/12/09 03:13:33;;;;;;;;;;;;;;;;;;5036159;28;1117;-83
2020/12/09 03:15:58;;;;;;;;;;;;;;;;;;5035872;28;870;-84
2020/12/09 03:18:23;;;;;;;;;;;;;;;;;;5035862;28;1148;-83
2020/12/09 03:20:48;;;;;;;;;;;;;;;;;;5035530;28;1210;-83
2020/12/09 03:23:14;;;;;;;;;;;;;;;;;;5035615;28;1453;-83
2020/12/09 03:25:39;;;;;;;;;;;;;;;;;;5035040;28;1409;-83
2020/12/09 03:28:04;;;;;;;;;;;;;;;;;;5035017;28;1906;-84
2020/12/09 03:30:30;;;;;;;;;;;;;;;;;;5033892;28;1247;-83
2020/12/09 03:32:55;;;;;;;;;;;;;;;;;;5035005;28;1321;-83
2020/12/09 03:35:20;;;;;;;;;;;;;;;;;;5034305;28;1286;-84
2020/12/09 03:37:45;;;;;;;;;;;;;;;;;;5033438;28;1262;-84
2020/12/09 03:40:11;;;;;;;;;;;;;;;;;;5035102;28;822;-84
2020/12/09 03:42:36;;;;;;;;;;;;;;;;;;5050196;28;1452;-84
2020/12/09 03:45:01;;;;;;;;;;;;;;;;;;5035195;28;881;-83
2020/12/09 03:47:27;;;;;;;;;;;;;;;;;;5050202;28;909;-84
2020/12/09 03:49:52;;;;;;;;;;;;;;;;;;5033226;28;1890;-83
2020/12/09 03:52:17;;;;;;;;;;;;;;;;;;5034691;28;1321;-84
2020/12/09 03:54:42;;;;;;;;;;;;;;;;;;5034640;28;826;-84
2020/12/09 03:57:07;;;;;;;;;;;;;;;;;;5050252;28;1125;-84
2020/12/09 03:59:33;;;;;;;;;;;;;;;;;;5033423;28;1223;-84
2020/12/09 04:01:58;;;;;;;;;;;;;;;;;;5034410;28;1345;-84
2020/12/09 04:04:23;;;;;;;;;;;;;;;;;;5033384;28;1217;-84
2020/12/09 04:06:49;;;;;;;;;;;;;;;;;;5034662;28;821;-83
2020/12/09 04:09:14;;;;;;;;;;;;;;;;;;5049985;28;1951;-84
2020/12/09 04:11:39;;;;;;;;;;;;;;;;;;5034631;28;1310;-84
2020/12/09 04:14:04;;;;;;;;;;;;;;;;;;5034542;28;892;-84
2020/12/09 04:16:30;;;;;;;;;;;;;;;;;;5033226;28;1188;-84
2020/12/09 04:18:55;;;;;;;;;;;;;;;;;;5050168;28;1135;-84
2020/12/09 04:21:20;;;;;;;;;;;;;;;;;;5032980;28;1527;-84
2020/12/09 04:23:45;;;;;;;;;;;;;;;;;;5049797;28;1210;-84
2020/12/09 04:26:11;;;;;;;;;;;;;;;;;;5033370;28;996;-84
2020/12/09 04:28:36;;;;;;;;;;;;;;;;;;5049645;28;2018;-84
2020/12/09 04:31:01;;;;;;;;;;;;;;;;;;5049855;28;1154;-84
2020/12/09 04:33:27;;;;;;;;;;;;;;;;;;5034563;28;1388;-84
2020/12/09 04:35:53;;;;;;;;;;;;;;;;;;5033099;28;1354;-85
2020/12/09 04:38:18;;;;;;;;;;;;;;;;;;5036632;28;1152;-84
2020/12/09 04:40:44;;;;;;;;;;;;;;;;;;5037122;28;1253;-84
2020/12/09 04:43:09;;;;;;;;;;;;;;;;;;5053385;28;1458;-85
2020/12/09 04:45:34;;;;;;;;;;;;;;;;;;5037081;28;1307;-85
2020/12/09 04:48:02;;;;;;;;;;;;;;;;;;5038047;28;1878;-85
2020/12/09 04:50:33;;;;;;;;;;;;;;;;;;5036536;28;1078;-84
2020/12/09 04:53:03;;;;;;;;;;;;;;;;;;5053179;28;1377;-84
2020/12/09 04:55:31;;;;;;;;;;;;;;;;;;5037935;28;826;-84
2020/12/09 04:57:56;;;;;;;;;;;;;;;;;;5037876;28;877;-84
2020/12/09 05:00:22;;;;;;;;;;;;;;;;;;5037974;28;766;-84
2020/12/09 05:02:48;;;;;;;;;;;;;;;;;;5036459;28;1476;-83
2020/12/09 05:05:15;;;;;;;;;;;;;;;;;;5036419;28;1154;-85
2020/12/09 05:07:41;;;;;;;;;;;;;;;;;;5036390;28;1223;-85
2020/12/09 05:10:08;;;;;;;;;;;;;;;;;;5037799;28;1898;-85
2020/12/09 05:13:00;;;;;;;;;;;;;;;;;;5036344;28;1421;-84
2020/12/09 05:15:25;;;;;;;;;;;;;;;;;;5035431;28;1056;-85
2020/12/09 05:18:06;;;;;;;;;;;;;;;;;;5037457;28;872;-84
2020/12/09 05:20:40;;;;;;;;;;;;;;;;;;5036022;28;1196;-84
2020/12/09 05:23:06;;;;;;;;;;;;;;;;;;5036153;28;1436;-85
2020/12/09 05:25:32;;;;;;;;;;;;;;;;;;5036474;28;1165;-85
2020/12/09 05:27:58;;;;;;;;;;;;;;;;;;5036242;28;1867;-84
2020/12/09 05:30:43;;;;;;;;;;;;;;;;;;5036299;28;1344;-85
2020/12/09 05:33:09;;;;;;;;;;;;;;;;;;5035946;28;1398;-84
2020/12/09 05:35:35;;;;;;;;;;;;;;;;;;5036048;28;1469;-85
2020/12/09 05:38:11;;;;;;;;;;;;;;;;;;5036153;28;1251;-84
2020/12/09 05:40:37;;;;;;;;;;;;;;;;;;5037284;28;774;-84
2020/12/09 05:43:03;;;;;;;;;;;;;;;;;;5036954;28;1326;-84
2020/12/09 05:45:28;;;;;;;;;;;;;;;;;;5037189;28;897;-85
2020/12/09 05:48:10;;;;;;;;;;;;;;;;;;5035532;28;1955;-84
2020/12/09 05:50:49;;;;;;;;;;;;;;;;;;5035525;28;1495;-85
2020/12/09 05:53:15;;;;;;;;;;;;;;;;;;5035535;28;1500;-85
2020/12/09 05:55:41;;;;;;;;;;;;;;;;;;5035557;28;1220;-85
2020/12/09 05:58:22;;;;;;;;;;;;;;;;;;5035805;28;1255;-84
2020/12/09 06:01:07;;;;;;;;;;;;;;;;;;5035363;28;1406;-85
2020/12/09 06:03:32;;;;;;;;;;;;;;;;;;5036726;28;924;-84
2020/12/09 06:06:16;;;;;;;;;;;;;;;;;;5036682;28;802;-85
2020/12/09 06:08:43;;;;;;;;;;;;;;;;;;5036889;28;1890;-85
2020/12/09 06:11:09;;;;;;;;;;;;;;;;;;5035005;28;1297;-83
2020/12/09 06:13:35;;;;;;;;;;;;;;;;;;5036530;28;826;-84
2020/12/09 06:16:01;;;;;;;;;;;;;;;;;;5036506;28;857;-85
2020/12/09 06:18:28;;;;;;;;;;;;;;;;;;5035178;28;1327;-84
2020/12/09 06:20:54;;;;;;;;;;;;;;;;;;5036507;28;822;-85
2020/12/09 06:23:19;;;;;;;;;;;;;;;;;;5036297;28;1318;-85
2020/12/09 06:25:45;;;;;;;;;;;;;;;;;;5035038;28;1078;-85
2020/12/09 06:28:12;;;;;;;;;;;;;;;;;;5034965;28;1886;-85
2020/12/09 06:30:37;;;;;;;;;;;;;;;;;;5036267;28;747;-86
2020/12/09 06:33:02;;;;;;;;;;;;;;;;;;5036158;28;1318;-84
2020/12/09 06:35:28;;;;;;;;;;;;;;;;;;5036127;28;878;-84
2020/12/09 06:38:16;;;;;;;;;;;;;;;;;;5036083;28;1011;-84
2020/12/09 06:40:56;;;;;;;;;;;;;;;;;;5030501;28;1138;-84
2020/12/09 06:43:22;;;;;;;;;;;;;;;;;;5034530;28;1262;-84
2020/12/09 06:45:47;;;;;;;;;;;;;;;;;;5035873;28;826;-84
2020/12/09 06:48:13;;;;;;;;;;;;;;;;;;5036014;28;1902;-83
2020/12/09 06:50:39;;;;;;;;;;;;;;;;;;5034421;28;1225;-84
2020/12/09 06:53:11;;;;;;;;;;;;;;;;;;5034431;28;1436;-83
2020/12/09 06:55:37;;;;;;;;;;;;;;;;;;5034547;28;830;-84
2020/12/09 06:58:20;;;;;;;;;;;;;;;;;;5034412;28;1488;-84
2020/12/09 07:00:57;;;;;;;;;;;;;;;;;;5049998;28;1514;-84
2020/12/09 07:03:26;;;;;;;;;;;;;;;;;;5034118;28;1495;-84
2020/12/09 07:05:52;;;;;;;;;;;;;;;;;;5050832;28;1485;-84
2020/12/09 07:08:17;;;;;;;;;;;;;;;;;;5034109;28;1957;-84
2020/12/09 07:10:42;;;;;;;;;;;;;;;;;;5033965;28;1073;-84
2020/12/09 07:13:11;;;;;;;;;;;;;;;;;;5035378;28;1286;-84
2020/12/09 07:15:38;;;;;;;;;;;;;;;;;;5034052;28;1213;-84
2020/12/09 07:18:04;;;;;;;;;;;;;;;;;;5034654;28;1485;-84
2020/12/09 07:20:29;;;;;;;;;;;;;;;;;;5033796;28;1291;-84
2020/12/09 07:22:54;;;;;;;;;;;;;;;;;;5033934;28;1463;-84
2020/12/09 07:25:20;;;;;;;;;;;;;;;;;;5035768;28;794;-85
2020/12/09 07:27:45;;;;;;;;;;;;;;;;;;5033808;28;1688;-84
2020/12/09 07:30:12;;;;;;;;;;;;;;;;;;5050254;28;1890;-84
2020/12/09 07:32:38;;;;;;;;;;;;;;;;;;5035052;28;1428;-84
2020/12/09 07:35:07;;;;;;;;;;;;;;;;;;5035371;28;814;-84
2020/12/09 07:37:35;;;;;;;;;;;;;;;;;;5035007;28;870;-83
2020/12/09 07:40:09;;;;;;;;;;;;;;;;;;5033486;28;1115;-84
2020/12/09 07:42:35;;;;;;;;;;;;;;;;;;5033600;28;1540;-85
2020/12/09 07:45:00;;;;;;;;;;;;;;;;;;5035210;28;960;-84
2020/12/09 07:47:29;;;;;;;;;;;;;;;;;;5033529;28;1122;-84
2020/12/09 07:49:56;;;;;;;;;;;;;;;;;;5033336;28;1902;-85
2020/12/09 07:52:25;;;;;;;;;;;;;;;;;;5033478;28;1448;-84
2020/12/09 07:54:52;;;;;;;;;;;;;;;;;;5033518;28;1288;-84
2020/12/09 07:57:18;;;;;;;;;;;;;;;;;;5050365;28;1263;-84
2020/12/09 07:59:43;;;;;;;;;;;;;;;;;;5034447;28;959;-84
2020/12/09 08:02:22;;;;;;;;;;;;;;;;;;5033382;28;1448;-85
2020/12/09 08:04:48;;;;;;;;;;;;;;;;;;5033338;28;1536;-84
2020/12/09 08:07:18;;;;;;;;;;;;;;;;;;5034913;28;940;-84
2020/12/09 08:10:03;;;;;;;;;;;;;;;;;;5034436;28;1898;-83
2020/12/09 08:12:28;;;;;;;;;;;;;;;;;;5039895;28;1378;-84
2020/12/09 08:14:53;;;;;;;;;;;;;;;;;;5040007;28;1367;-84
2020/12/09 08:17:28;;;;;;;;;;;;;;;;;;5041314;28;794;-84
2020/12/09 08:20:07;;;;;;;;;;;;;;;;;;5039764;28;1392;-84
2020/12/09 08:22:33;;;;;;;;;;;;;;;;;;5040078;28;1377;-84
2020/12/09 08:25:05;;;;;;;;;;;;;;;;;;5039926;28;1291;-84
2020/12/09 08:27:37;;;;;;;;;;;;;;;;;;5039727;28;1374;-85
2020/12/09 08:30:05;;;;;;;;;;;;;;;;;;5039490;28;1882;-83
2020/12/09 08:32:31;;;;;;;;;;;;;;;;;;5039721;28;1369;-83
2020/12/09 08:35:09;;;;;;;;;;;;;;;;;;5039735;28;1413;-83
2020/12/09 08:37:42;;;;;;;;;;;;;;;;;;5041424;28;766;-85
2020/12/09 08:40:07;;;;;;;;;;;;;;;;;;5040879;28;825;-85
2020/12/09 08:42:32;;;;;;;;;;;;;;;;;;5039468;28;1383;-85
2020/12/09 08:44:58;;;;;;;;;;;;;;;;;;5039908;28;1043;-85
2020/12/09 08:47:23;;;;;;;;;;;;;;;;;;5040147;28;1216;-85
2020/12/09 08:49:48;;;;;;;;;;;;;;;;;;5039453;28;1973;-85
2020/12/09 08:52:13;;;;;;;;;;;;;;;;;;5056230;28;1452;-85
2020/12/09 08:54:39;;;;;;;;;;;;;;;;;;5039470;28;1288;-87
2020/12/09 08:57:05;;;;;;;;;;;;;;;;;;5040223;28;1148;-86
2020/12/09 08:59:30;;;;;;;;;;;;;;;;;;5040800;28;857;-86
2020/12/09 09:01:55;;;;;;;;;;;;;;;;;;5039382;28;1488;-86
2020/12/09 09:04:27;;;;;;;;;;;;;;;;;;5039363;28;1060;-87
2020/12/09 09:06:52;;;;;;;;;;;;;;;;;;5040677;28;819;-87
2020/12/09 09:09:17;;;;;;;;;;;;;;;;;;5039418;28;1894;-86
2020/12/09 09:11:43;;;;;;;;;;;;;;;;;;5055794;28;1510;-86
2020/12/09 09:14:08;;;;;;;;;;;;;;;;;;5039946;28;1228;-87
2020/12/09 09:16:36;;;;;;;;;;;;;;;;;;5040581;28;964;-85
2020/12/09 09:19:01;;;;;;;;;;;;;;;;;;5055942;28;1256;-85
2020/12/09 09:21:32;;;;;;;;;;;;;;;;;;5040622;28;1404;-89
2020/12/09 09:23:57;;;;;;;;;;;;;;;;;;5035194;28;1319;-88
2020/12/09 09:26:23;;;;;;;;;;;;;;;;;;5036309;28;1106;-88
2020/12/09 09:28:48;;;;;;;;;;;;;;;;;;5036092;28;1948;-88
2020/12/09 09:31:14;;;;;;;;;;;;;;;;;;5035868;28;1311;-88
2020/12/09 09:33:39;;;;;;;;;;;;;;;;;;5036005;28;1264;-87
2020/12/09 09:36:04;;;;;;;;;;;;;;;;;;5036226;28;826;-86
2020/12/09 09:38:30;;;;;;;;;;;;;;;;;;5035979;28;1335;-87
2020/12/09 09:40:55;;;;;;;;;;;;;;;;;;5035955;28;1289;-87
2020/12/09 09:43:20;;;;;;;;;;;;;;;;;;5035968;28;1416;-86
2020/12/09 09:45:46;;;;;;;;;;;;;;;;;;5035937;28;1219;-86
2020/12/09 09:48:12;;;;;;;;;;;;;;;;;;5035872;28;1963;-86
2020/12/09 09:50:37;;;;;;;;;;;;;;;;;;5052813;28;1180;-88
2020/12/09 09:53:02;;;;;;;;;;;;;;;;;;5035805;28;1623;-87
2020/12/09 09:55:27;;;;;;;;;;;;;;;;;;5035760;28;1285;-87
2020/12/09 09:57:53;;;;;;;;;;;;;;;;;;5035664;28;1085;-87
2020/12/09 10:00:18;;;;;;;;;;;;;;;;;;5037036;28;928;-87
2020/12/09 10:02:44;;;;;;;;;;;;;;;;;;5052519;28;1282;-86
2020/12/09 10:05:09;;;;;;;;;;;;;;;;;;5036999;28;1241;-87
2020/12/09 10:07:34;;;;;;;;;;;;;;;;;;5035879;28;1238;-87
2020/12/09 10:10:03;;;;;;;;;;;;;;;;;;5037364;28;1967;-86
2020/12/09 10:12:30;;;;;;;;;;;;;;;;;;5035655;28;1411;-87
2020/12/09 10:14:56;;;;;;;;;;;;;;;;;;5035759;28;1242;-87
2020/12/09 10:17:21;;;;;;;;;;;;;;;;;;5036019;28;869;-86
2020/12/09 10:19:46;;;;;;;;;;;;;;;;;;5035419;28;1416;-86
2020/12/09 10:22:11;;;;;;;;;;;;;;;;;;5035234;28;1444;-87
2020/12/09 10:24:37;;;;;;;;;;;;;;;;;;5051851;28;1306;-87
2020/12/09 10:27:02;;;;;;;;;;;;;;;;;;5034981;28;1174;-88
2020/12/09 10:29:28;;;;;;;;;;;;;;;;;;5034917;28;1882;-87
2020/12/09 10:31:53;;;;;;;;;;;;;;;;;;5034771;28;1412;-88
2020/12/09 10:34:19;;;;;;;;;;;;;;;;;;5033745;28;1252;-87
2020/12/09 10:36:51;;;;;;;;;;;;;;;;;;5034859;28;1204;-87
2020/12/09 10:39:17;;;;;;;;;;;;;;;;;;5034765;28;1098;-87
2020/12/09 10:41:43;;;;;;;;;;;;;;;;;;5034631;28;1468;-87
2020/12/09 10:44:09;;;;;;;;;;;;;;;;;;5036038;28;850;-87
2020/12/09 10:46:35;;;;;;;;;;;;;;;;;;5035077;28;1212;-88
2020/12/09 10:49:01;;;;;;;;;;;;;;;;;;5034657;28;1949;-86
2020/12/09 10:51:27;;;;;;;;;;;;;;;;;;5035806;28;1345;-86
2020/12/09 10:53:53;;;;;;;;;;;;;;;;;;5035440;28;853;-85
2020/12/09 10:56:25;;;;;;;;;;;;;;;;;;5034430;28;1449;-85
2020/12/09 10:58:50;;;;;;;;;;;;;;;;;;5034346;28;954;-85
2020/12/09 11:01:17;;;;;;;;;;;;;;;;;;5034275;28;1357;-86
2020/12/09 11:03:43;;;;;;;;;;;;;;;;;;5034352;28;1446;-88
2020/12/09 11:06:08;;;;;;;;;;;;;;;;;;5035852;28;901;-87
2020/12/09 11:08:33;;;;;;;;;;;;;;;;;;5035497;28;1895;-87
2020/12/09 11:10:58;;;;;;;;;;;;;;;;;;5034245;28;1246;-88
2020/12/09 11:13:24;;;;;;;;;;;;;;;;;;5034274;28;1393;-87
2020/12/09 11:15:49;;;;;;;;;;;;;;;;;;5034168;28;1447;-88
2020/12/09 11:18:14;;;;;;;;;;;;;;;;;;5034074;28;1042;-86
2020/12/09 11:20:39;;;;;;;;;;;;;;;;;;5035282;28;1082;-87
2020/12/09 11:23:10;;;;;;;;;;;;;;;;;;5036823;28;1349;-84
2020/12/09 11:25:35;;;;;;;;;;;;;;;;;;5034064;28;1114;-85
2020/12/09 11:28:00;;;;;;;;;;;;;;;;;;5035189;28;885;-85
2020/12/09 11:30:25;;;;;;;;;;;;;;;;;;5035150;28;1898;-84
2020/12/09 11:32:51;;;;;;;;;;;;;;;;;;5034666;28;1436;-84
2020/12/09 11:35:16;;;;;;;;;;;;;;;;;;5035471;28;915;-84
2020/12/09 11:37:41;;;;;;;;;;;;;;;;;;5035514;28;801;-84
2020/12/09 11:40:06;;;;;;;;;;;;;;;;;;5034439;28;1237;-84
2020/12/09 11:42:36;;;;;;;;;;;;;;;;;;5035366;28;1314;-83
2020/12/09 11:45:01;;;;;;;;;;;;;;;;;;5033649;28;1609;-83
2020/12/09 11:47:27;;;;;;;;;;;;;;;;;;5033392;28;1744;-86
2020/12/09 11:49:52;;;;;;;;;;;;;;;;;;5033573;28;2037;-86
2020/12/09 11:52:17;;;;;;;;;;;;;;;;;;5033543;28;1472;-85
2020/12/09 11:54:42;;;;;;;;;;;;;;;;;;5033438;28;1143;-85
2020/12/09 11:57:08;;;;;;;;;;;;;;;;;;5033533;28;1021;-87
2020/12/09 11:59:33;;;;;;;;;;;;;;;;;;5033409;28;1116;-85
2020/12/09 12:01:58;;;;;;;;;;;;;;;;;;5033067;28;1314;-85
2020/12/09 12:04:23;;;;;;;;;;;;;;;;;;5033460;28;1085;-85
2020/12/09 12:06:49;;;;;;;;;;;;;;;;;;5033381;28;1505;-84
2020/12/09 12:09:14;;;;;;;;;;;;;;;;;;5033395;28;1898;-85
2020/12/09 12:11:39;;;;;;;;;;;;;;;;;;5033140;28;1422;-85
2020/12/09 12:14:05;;;;;;;;;;;;;;;;;;5027966;28;1310;-85
2020/12/09 12:16:30;;;;;;;;;;;;;;;;;;5013589;28;1383;-86
2020/12/09 12:18:55;;;;;;;;;;;;;;;;;;5029854;28;1235;-85
2020/12/09 12:21:22;;;;;;;;;;;;;;;;;;5062437;28;1491;-85
2020/12/09 12:23:48;;;;;;;;;;;;;;;;;;5033308;28;1386;-85
2020/12/09 12:26:14;;;;;;;;;;;;;;;;;;5034504;28;845;-85
2020/12/09 12:28:39;;;;;;;;;;;;;;;;;;5033128;28;1953;-85
2020/12/09 12:31:05;;;;;;;;;;;;;;;;;;5034600;28;1318;-86
2020/12/09 12:33:30;;;;;;;;;;;;;;;;;;5033147;28;1003;-85
2020/12/09 12:35:55;;;;;;;;;;;;;;;;;;5034465;28;822;-86
2020/12/09 12:38:20;;;;;;;;;;;;;;;;;;5033495;28;1254;-85
2020/12/09 12:40:46;;;;;;;;;;;;;;;;;;5034554;28;814;-85
2020/12/09 12:43:11;;;;;;;;;;;;;;;;;;5034298;28;1389;-85
2020/12/09 12:45:36;;;;;;;;;;;;;;;;;;5033030;28;1417;-86
2020/12/09 12:48:02;;;;;;;;;;;;;;;;;;5033916;28;1192;-86
2020/12/09 12:50:27;;;;;;;;;;;;;;;;;;5032733;28;1957;-86
2020/12/09 12:52:52;;;;;;;;;;;;;;;;;;5033216;28;1464;-85
2020/12/09 12:55:17;;;;;;;;;;;;;;;;;;5032851;28;1343;-85
2020/12/09 12:57:45;;;;;;;;;;;;;;;;;;5034980;28;858;-86
2020/12/09 13:00:11;;;;;;;;;;;;;;;;;;5030767;28;1356;-87
2020/12/09 13:02:36;;;;;;;;;;;;;;;;;;5034015;28;1444;-86
2020/12/09 13:05:02;;;;;;;;;;;;;;;;;;5016781;28;1344;-83
2020/12/09 13:07:28;;;;;;;;;;;;;;;;;;5019512;28;1321;-84
2020/12/09 13:09:53;;;;;;;;;;;;;;;;;;5019181;28;1902;-85
2020/12/09 13:12:20;;;;;;;;;;;;;;;;;;5027731;28;1618;-84
2020/12/09 13:14:45;;;;;;;;;;;;;;;;;;5022536;28;1621;-84
2020/12/09 13:17:10;;;;;;;;;;;;;;;;;;5016478;28;1387;-85
2020/12/09 13:19:35;;;;;;;;;;;;;;;;;;5016727;28;1258;-85
2020/12/09 13:22:01;;;;;;;;;;;;;;;;;;5017581;28;1318;-85
2020/12/09 13:24:26;;;;;;;;;;;;;;;;;;5017024;28;1357;-87
2020/12/09 13:26:52;;;;;;;;;;;;;;;;;;5032008;28;1711;-85
2020/12/09 13:29:17;;;;;;;;;;;;;;;;;;5037658;28;1898;-86
2020/12/09 13:31:42;;;;;;;;;;;;;;;;;;5035936;28;1346;-86
2020/12/09 13:34:08;;;;;;;;;;;;;;;;;;5036166;28;1171;-84
2020/12/09 13:36:34;;;;;;;;;;;;;;;;;;5035957;28;1191;-85
2020/12/09 13:38:59;;;;;;;;;;;;;;;;;;5036118;28;1276;-85
2020/12/09 13:41:28;;;;;;;;;;;;;;;;;;5035577;28;1302;-85
2020/12/09 13:43:53;;;;;;;;;;;;;;;;;;5035893;28;1209;-86
2020/12/09 13:46:18;;;;;;;;;;;;;;;;;;5036209;28;1246;-85
2020/12/09 13:48:44;;;;;;;;;;;;;;;;;;5037121;28;1885;-86
2020/12/09 13:51:09;;;;;;;;;;;;;;;;;;5035635;28;1357;-85
2020/12/09 13:53:34;;;;;;;;;;;;;;;;;;5036015;28;1276;-84
2020/12/09 13:55:59;;;;;;;;;;;;;;;;;;5035794;28;1032;-84
2020/12/09 13:58:25;;;;;;;;;;;;;;;;;;5036911;28;1031;-84
2020/12/09 14:00:50;;;;;;;;;;;;;;;;;;5035569;28;1230;-86
2020/12/09 14:03:15;;;;;;;;;;;;;;;;;;5036313;28;1504;-83
2020/12/09 14:05:40;;;;;;;;;;;;;;;;;;5035672;28;1241;-85
2020/12/09 14:08:06;;;;;;;;;;;;;;;;;;5035154;28;1303;-85
2020/12/09 14:10:31;;;;;;;;;;;;;;;;;;5034885;28;2049;-85
2020/12/09 14:22:20;;;;;;;;;;;;;;;;;;4989836;28;1402;-85
2020/12/09 14:53:01;;;;;;;;;;;;;;;;;;5035382;28;1440;-85
2020/12/09 14:55:26;;;;;;;;;;;;;;;;;;5033847;28;1231;-86
2020/12/09 14:57:52;;;;;;;;;;;;;;;;;;5034875;28;882;-85
2020/12/09 15:00:17;;;;;;;;;;;;;;;;;;5033470;28;1212;-86
2020/12/09 15:02:49;;;;;;;;;;;;;;;;;;5034056;28;1421;-85
2020/12/09 15:05:14;;;;;;;;;;;;;;;;;;5034122;28;1291;-85
2020/12/09 15:07:40;;;;;;;;;;;;;;;;;;5033718;28;1480;-87
2020/12/09 15:10:05;;;;;;;;;;;;;;;;;;5033471;28;1890;-85
2020/12/09 15:12:30;;;;;;;;;;;;;;;;;;5033560;28;1334;-83
2020/12/09 15:14:56;;;;;;;;;;;;;;;;;;5033626;28;1420;-84
2020/12/09 15:17:21;;;;;;;;;;;;;;;;;;5034856;28;817;-86
2020/12/09 15:19:47;;;;;;;;;;;;;;;;;;5033150;28;991;-86
2020/12/09 15:22:12;;;;;;;;;;;;;;;;;;5032899;28;1413;-85
2020/12/09 15:24:38;;;;;;;;;;;;;;;;;;5033558;28;841;-85
2020/12/09 15:27:03;;;;;;;;;;;;;;;;;;5035071;28;810;-85
2020/12/09 15:29:28;;;;;;;;;;;;;;;;;;5033440;28;1902;-83
2020/12/09 15:31:53;;;;;;;;;;;;;;;;;;5033151;28;1440;-84
2020/12/09 15:34:19;;;;;;;;;;;;;;;;;;5033392;28;1244;-86
2020/12/09 15:36:44;;;;;;;;;;;;;;;;;;5033315;28;1489;-87
2020/12/09 15:39:09;;;;;;;;;;;;;;;;;;5033418;28;853;-84
2020/12/09 15:41:35;;;;;;;;;;;;;;;;;;5034371;28;1302;-83
2020/12/09 15:44:01;;;;;;;;;;;;;;;;;;5033126;28;1674;-84
2020/12/09 15:46:26;;;;;;;;;;;;;;;;;;5034651;28;873;-86
2020/12/09 15:48:52;;;;;;;;;;;;;;;;;;5032813;28;1969;-86
2020/12/09 15:51:17;;;;;;;;;;;;;;;;;;5034323;28;1387;-84
2020/12/09 15:53:43;;;;;;;;;;;;;;;;;;5034174;28;917;-85
2020/12/09 15:56:08;;;;;;;;;;;;;;;;;;5034123;28;798;-85
2020/12/09 15:58:34;;;;;;;;;;;;;;;;;;5034065;28;1446;-86
2020/12/09 16:00:59;;;;;;;;;;;;;;;;;;5033947;28;897;-86
2020/12/09 16:03:24;;;;;;;;;;;;;;;;;;5032849;28;1480;-84
2020/12/09 16:05:49;;;;;;;;;;;;;;;;;;5032702;28;1033;-85
2020/12/09 16:08:22;;;;;;;;;;;;;;;;;;5034057;28;1898;-85
2020/12/09 16:10:47;;;;;;;;;;;;;;;;;;5033002;28;1335;-85
2020/12/09 16:13:12;;;;;;;;;;;;;;;;;;5034075;28;1322;-84
2020/12/09 16:15:39;;;;;;;;;;;;;;;;;;5032967;28;961;-84
2020/12/09 16:18:04;;;;;;;;;;;;;;;;;;5033996;28;904;-86
2020/12/09 16:20:30;;;;;;;;;;;;;;;;;;5033765;28;912;-85
2020/12/09 16:22:56;;;;;;;;;;;;;;;;;;5032470;28;1373;-85
2020/12/09 16:25:21;;;;;;;;;;;;;;;;;;5034027;28;798;-85
2020/12/09 16:27:46;;;;;;;;;;;;;;;;;;5032580;28;1408;-85
2020/12/09 16:30:14;;;;;;;;;;;;;;;;;;5032214;28;1886;-85
2020/12/09 16:32:39;;;;;;;;;;;;;;;;;;5034643;28;1471;-86
2020/12/09 16:35:04;;;;;;;;;;;;;;;;;;5036889;28;1101;-85
2020/12/09 16:37:30;;;;;;;;;;;;;;;;;;5036530;28;834;-85
2020/12/09 16:39:55;;;;;;;;;;;;;;;;;;5037700;28;909;-85
2020/12/09 16:42:20;;;;;;;;;;;;;;;;;;5036418;28;1468;-85
2020/12/09 16:44:46;;;;;;;;;;;;;;;;;;5037627;28;877;-86
2020/12/09 16:47:11;;;;;;;;;;;;;;;;;;5037815;28;786;-85
2020/12/09 16:49:36;;;;;;;;;;;;;;;;;;5036229;28;1957;-86
2020/12/09 16:52:01;;;;;;;;;;;;;;;;;;5036205;28;1433;-86
2020/12/09 16:54:27;;;;;;;;;;;;;;;;;;5036163;28;1397;-84
2020/12/09 16:56:55;;;;;;;;;;;;;;;;;;5037698;28;849;-87
2020/12/09 16:59:21;;;;;;;;;;;;;;;;;;5036044;28;1052;-85
2020/12/09 17:01:46;;;;;;;;;;;;;;;;;;5037172;28;1428;-86
2020/12/09 17:04:11;;;;;;;;;;;;;;;;;;5036055;28;1225;-86
2020/12/09 17:06:37;;;;;;;;;;;;;;;;;;5036052;28;901;-86
2020/12/09 17:09:03;;;;;;;;;;;;;;;;;;5035777;28;1898;-86
2020/12/09 17:11:29;;;;;;;;;;;;;;;;;;5035779;28;1338;-85
2020/12/09 17:13:54;;;;;;;;;;;;;;;;;;5035832;28;1320;-85
2020/12/09 17:16:19;;;;;;;;;;;;;;;;;;5032026;28;1600;-85
2020/12/09 17:18:45;;;;;;;;;;;;;;;;;;5017362;28;1307;-85
2020/12/09 17:21:16;;;;;;;;;;;;;;;;;;5017500;28;1412;-84
2020/12/09 17:23:42;;;;;;;;;;;;;;;;;;5015973;28;1482;-84
2020/12/09 17:26:07;;;;;;;;;;;;;;;;;;5017180;28;1028;-84
2020/12/09 17:28:32;;;;;;;;;;;;;;;;;;5015704;28;1886;-84
2020/12/09 17:30:57;;;;;;;;;;;;;;;;;;5015566;28;1167;-84
2020/12/09 17:33:23;;;;;;;;;;;;;;;;;;5015681;28;1389;-84
2020/12/09 17:35:48;;;;;;;;;;;;;;;;;;5015743;28;1259;-84
2020/12/09 17:38:13;;;;;;;;;;;;;;;;;;5016871;28;878;-83
2020/12/09 17:40:38;;;;;;;;;;;;;;;;;;5015411;28;1301;-84
2020/12/09 17:43:04;;;;;;;;;;;;;;;;;;5015490;28;1452;-84
2020/12/09 17:45:29;;;;;;;;;;;;;;;;;;5015534;28;1141;-84
2020/12/09 17:47:54;;;;;;;;;;;;;;;;;;5016627;28;826;-83
2020/12/09 17:50:19;;;;;;;;;;;;;;;;;;5016365;28;1886;-84
2020/12/09 17:52:45;;;;;;;;;;;;;;;;;;5016867;28;1291;-83